Time;durP1;ratioP1;P1;durP2;ratioP2;P2;SDS_P1;SDS_P2;PMS_P1;PMS_P2;Temp;Humidity;BMP_temperature;BMP_pressure;BME280_temperature;BME280_humidity;BME280_pressure;Samples;Min_cycle;Max_cycle;Signal;HPM_P1;HPM_P2
2023/03/11 00:02:13;;;;;;;7.28;1.38;;;0.70;99.90;;;;;;4964921;28;20125;-69
2023/03/11 00:04:38;;;;;;;11.55;2.00;;;0.70;99.90;;;;;;4915379;28;20490;-69
2023/03/11 00:07:09;;;;;;;8.55;1.20;;;0.70;99.90;;;;;;4964690;28;20576;-69
2023/03/11 00:09:35;;;;;;;1.85;0.90;;;0.70;99.90;;;;;;4927276;28;20859;-69
2023/03/11 00:12:02;;;;;;;8.90;1.30;;;0.60;99.90;;;;;;4935527;28;20066;-68
2023/03/11 00:14:28;;;;;;;4.28;1.33;;;0.60;99.90;;;;;;4919779;28;22127;-69
2023/03/11 00:16:54;;;;;;;6.60;1.10;;;0.60;99.90;;;;;;4946623;28;20112;-71
2023/03/11 00:19:20;;;;;;;8.45;1.40;;;0.60;99.90;;;;;;4948656;28;20054;-69
2023/03/11 00:21:46;;;;;;;11.60;1.42;;;0.60;99.90;;;;;;4947768;28;20073;-69
2023/03/11 00:24:12;;;;;;;7.18;1.20;;;0.60;99.90;;;;;;4965499;28;20055;-68
2023/03/11 00:26:37;;;;;;;8.55;2.38;;;0.80;99.90;;;;;;4948298;28;20754;-69
2023/03/11 00:29:03;;;;;;;4.68;1.60;;;0.60;99.90;;;;;;4947916;28;20141;-68
2023/03/11 00:31:29;;;;;;;5.78;1.10;;;0.60;99.90;;;;;;4933159;28;20108;-68
2023/03/11 00:33:58;;;;;;;5.97;1.00;;;0.60;99.90;;;;;;4930383;28;20106;-68
2023/03/11 00:36:30;;;;;;;4.70;1.05;;;0.60;99.90;;;;;;4928522;28;20050;-68
2023/03/11 00:38:57;;;;;;;5.43;1.20;;;0.60;99.90;;;;;;4945236;28;20058;-69
2023/03/11 00:41:23;;;;;;;6.63;1.40;;;0.60;99.90;;;;;;4942418;28;20440;-70
2023/03/11 00:43:49;;;;;;;7.05;1.30;;;0.60;99.90;;;;;;4965012;28;22406;-69
2023/03/11 00:46:15;;;;;;;8.70;1.13;;;0.60;99.90;;;;;;4946312;28;20046;-69
2023/03/11 00:48:41;;;;;;;5.85;1.23;;;0.60;99.90;;;;;;4933596;28;20520;-69
2023/03/11 00:51:10;;;;;;;3.78;1.02;;;0.60;99.90;;;;;;4946901;28;20785;-69
2023/03/11 00:53:36;;;;;;;5.80;1.17;;;0.60;99.90;;;;;;4957735;28;20559;-69
2023/03/11 00:56:10;;;;;;;8.50;0.98;;;0.60;99.90;;;;;;4947521;28;20046;-69
2023/03/11 00:58:36;;;;;;;8.63;1.10;;;0.60;99.90;;;;;;4951181;28;20050;-69
2023/03/11 01:01:11;;;;;;;3.72;1.10;;;0.60;99.90;;;;;;4946681;28;20050;-69
2023/03/11 01:03:37;;;;;;;4.13;1.00;;;0.60;99.90;;;;;;4946875;28;20042;-69
2023/03/11 01:06:04;;;;;;;5.28;1.15;;;0.60;99.90;;;;;;4926653;28;20587;-69
2023/03/11 01:08:30;;;;;;;3.60;1.10;;;0.60;99.90;;;;;;4946428;28;20055;-68
2023/03/11 01:10:57;;;;;;;4.55;0.73;;;0.60;99.90;;;;;;4948458;28;20061;-69
2023/03/11 01:13:24;;;;;;;7.20;1.10;;;0.60;99.90;;;;;;4930156;28;20129;-69
2023/03/11 01:15:51;;;;;;;7.30;1.23;;;0.60;99.90;;;;;;4943762;28;20054;-69
2023/03/11 01:18:17;;;;;;;12.75;0.98;;;0.60;99.90;;;;;;4948048;28;20057;-69
2023/03/11 01:20:42;;;;;;;5.38;1.17;;;0.60;99.90;;;;;;4927145;28;20081;-69
2023/03/11 01:23:10;;;;;;;4.47;1.15;;;0.70;99.90;;;;;;4915483;28;20046;-69
2023/03/11 01:25:39;;;;;;;8.85;0.90;;;0.70;99.90;;;;;;4948056;28;20120;-69
2023/03/11 01:28:07;;;;;;;2.40;0.90;;;0.60;99.90;;;;;;4931080;28;20046;-69
2023/03/11 01:30:35;;;;;;;9.18;1.40;;;0.60;99.90;;;;;;4931485;28;20057;-70
2023/03/11 01:33:02;;;;;;;5.07;2.00;;;0.60;99.90;;;;;;4934936;28;20408;-69
2023/03/11 01:35:29;;;;;;;8.52;1.40;;;0.60;99.90;;;;;;4935000;28;20062;-69
2023/03/11 01:37:56;;;;;;;7.78;1.33;;;0.60;99.90;;;;;;4898402;28;21121;-69
2023/03/11 01:40:31;;;;;;;5.15;1.15;;;0.70;99.90;;;;;;4948905;28;20061;-69
2023/03/11 01:42:58;;;;;;;7.15;1.27;;;0.50;99.90;;;;;;4964182;28;20112;-69
2023/03/11 01:45:33;;;;;;;4.45;1.10;;;0.50;99.90;;;;;;4932946;28;20062;-70
2023/03/11 01:48:00;;;;;;;7.00;0.88;;;0.50;99.90;;;;;;4934149;28;20129;-69
2023/03/11 01:50:34;;;;;;;8.30;1.20;;;0.50;99.90;;;;;;4919250;28;20054;-69
2023/03/11 01:52:59;;;;;;;4.18;1.00;;;0.50;99.90;;;;;;4933900;28;20094;-69
2023/03/11 01:55:26;;;;;;;1.58;0.88;;;0.50;99.90;;;;;;4914613;28;21675;-70
2023/03/11 01:57:53;;;;;;;5.20;0.85;;;0.40;99.90;;;;;;4933167;28;20053;-70
2023/03/11 02:00:19;;;;;;;4.72;1.00;;;0.40;99.90;;;;;;4899301;28;20401;-69
2023/03/11 02:02:50;;;;;;;4.55;1.20;;;0.40;99.90;;;;;;4935085;28;20054;-69
2023/03/11 02:05:19;;;;;;;5.10;1.00;;;0.40;99.90;;;;;;4934733;28;20112;-70
2023/03/11 02:07:46;;;;;;;5.20;1.08;;;0.30;99.90;;;;;;4948997;28;20413;-70
2023/03/11 02:10:12;;;;;;;4.20;1.00;;;0.30;99.90;;;;;;4914235;28;20149;-70
2023/03/11 02:12:39;;;;;;;2.45;1.08;;;0.30;99.90;;;;;;4907198;28;20141;-70
2023/03/11 02:15:07;;;;;;;4.13;0.90;;;0.20;99.90;;;;;;4947357;28;20057;-69
2023/03/11 02:17:35;;;;;;;7.95;1.05;;;0.20;99.90;;;;;;4934471;28;21100;-69
2023/03/11 02:20:03;;;;;;;3.08;0.93;;;0.20;99.90;;;;;;4934427;28;20464;-69
2023/03/11 02:22:32;;;;;;;3.35;0.90;;;0.10;99.90;;;;;;4948157;28;20050;-69
2023/03/11 02:25:35;;;;;;;3.85;0.90;;;0.10;99.90;;;;;;4900387;28;20510;-69
2023/03/11 02:28:07;;;;;;;5.97;1.08;;;0.10;99.90;;;;;;4935894;28;20520;-70
2023/03/11 02:30:34;;;;;;;4.63;1.00;;;0.00;99.90;;;;;;4943407;28;20458;-69
2023/03/11 02:33:01;;;;;;;2.05;0.80;;;0.00;99.90;;;;;;4934076;28;20069;-70
2023/03/11 02:35:27;;;;;;;1.98;0.90;;;0.00;99.90;;;;;;4935978;28;22018;-69
2023/03/11 02:37:53;;;;;;;7.43;1.10;;;-0.10;99.90;;;;;;4944897;28;20907;-69
2023/03/11 02:40:30;;;;;;;2.72;0.90;;;-0.10;99.90;;;;;;4928806;28;20050;-69
2023/03/11 02:43:09;;;;;;;4.25;0.85;;;-0.10;99.90;;;;;;4932190;28;20042;-69
2023/03/11 02:45:38;;;;;;;3.30;1.00;;;-0.20;99.90;;;;;;4931053;28;20509;-69
2023/03/11 02:48:07;;;;;;;6.88;1.08;;;-0.20;99.90;;;;;;4949483;28;20058;-69
2023/03/11 02:50:36;;;;;;;2.35;1.02;;;-0.20;99.90;;;;;;4949462;28;20061;-69
2023/03/11 02:53:03;;;;;;;2.75;0.90;;;-0.20;99.90;;;;;;4948942;28;20046;-69
2023/03/11 02:55:29;;;;;;;3.17;0.80;;;-0.20;99.90;;;;;;4948426;28;20050;-69
2023/03/11 02:57:55;;;;;;;3.05;0.85;;;-0.20;99.90;;;;;;4926056;28;20476;-69
2023/03/11 03:00:21;;;;;;;2.42;0.90;;;-0.20;99.90;;;;;;4915164;28;20065;-69
2023/03/11 03:02:51;;;;;;;4.40;1.00;;;-0.20;99.90;;;;;;4913853;28;20042;-69
2023/03/11 03:05:19;;;;;;;4.43;1.13;;;-0.30;99.90;;;;;;4918033;28;20053;-70
2023/03/11 03:07:47;;;;;;;5.35;0.90;;;-0.30;99.90;;;;;;4944349;28;20057;-69
2023/03/11 03:10:14;;;;;;;4.22;1.20;;;-0.30;99.90;;;;;;4947902;28;20749;-69
2023/03/11 03:12:40;;;;;;;2.25;0.82;;;-0.40;99.90;;;;;;4931612;28;20073;-70
2023/03/11 03:15:06;;;;;;;4.78;0.95;;;-0.40;99.90;;;;;;4916397;28;20050;-69
2023/03/11 03:17:32;;;;;;;2.33;1.00;;;-0.50;99.90;;;;;;4933406;28;20066;-69
2023/03/11 03:19:58;;;;;;;5.47;1.00;;;-0.60;99.90;;;;;;4928386;28;20054;-68
2023/03/11 03:22:26;;;;;;;1.50;0.77;;;-0.60;99.90;;;;;;4911237;28;20601;-69
2023/03/11 03:24:52;;;;;;;6.82;1.10;;;-0.60;99.90;;;;;;4944873;28;20413;-69
2023/03/11 03:27:18;;;;;;;2.72;0.80;;;-0.70;99.90;;;;;;4910161;28;20928;-68
2023/03/11 03:29:44;;;;;;;5.13;1.30;;;-0.70;99.90;;;;;;4945579;28;20477;-69
2023/03/11 03:32:10;;;;;;;7.15;1.15;;;-0.80;99.90;;;;;;4916511;28;20090;-68
2023/03/11 03:34:36;;;;;;;4.30;1.15;;;-0.80;99.90;;;;;;4931517;28;20113;-68
2023/03/11 03:37:02;;;;;;;3.13;1.00;;;-0.90;99.90;;;;;;4934032;28;20050;-68
2023/03/11 03:39:27;;;;;;;4.45;1.10;;;-0.90;99.90;;;;;;4945998;28;20057;-68
2023/03/11 03:41:53;;;;;;;6.25;1.60;;;-1.00;99.90;;;;;;4932240;28;20143;-69
2023/03/11 03:44:19;;;;;;;2.20;0.90;;;-1.00;99.90;;;;;;4932329;28;20125;-68
2023/03/11 03:46:45;;;;;;;3.08;0.85;;;-0.90;99.90;;;;;;4965076;28;20188;-68
2023/03/11 03:49:11;;;;;;;6.78;1.20;;;-1.00;99.90;;;;;;4931566;28;20132;-68
2023/03/11 03:51:37;;;;;;;4.97;1.10;;;-1.00;99.90;;;;;;4921261;28;20050;-68
2023/03/11 03:54:02;;;;;;;3.00;0.90;;;-1.10;99.90;;;;;;4917638;28;20129;-68
2023/03/11 03:56:28;;;;;;;2.50;1.08;;;-1.20;99.90;;;;;;4899125;28;20054;-67
2023/03/11 03:58:54;;;;;;;3.50;1.08;;;-1.20;99.90;;;;;;4929954;28;20073;-68
2023/03/11 04:01:20;;;;;;;5.72;1.40;;;-1.20;99.90;;;;;;4946825;28;20050;-68
2023/03/11 04:03:46;;;;;;;4.30;1.20;;;-1.20;99.90;;;;;;4933406;28;27361;-68
2023/03/11 04:06:22;;;;;;;3.38;1.08;;;-1.20;99.90;;;;;;4915736;28;20038;-68
2023/03/11 04:08:50;;;;;;;5.50;1.00;;;-1.20;99.90;;;;;;4952046;28;20038;-68
2023/03/11 04:11:16;;;;;;;4.38;1.10;;;-1.20;99.90;;;;;;4946987;28;20058;-68
2023/03/11 04:13:43;;;;;;;1.98;0.80;;;-1.20;99.90;;;;;;4963630;28;20115;-68
2023/03/11 04:16:17;;;;;;;5.95;1.08;;;-1.30;99.90;;;;;;4929521;28;20153;-68
2023/03/11 04:18:43;;;;;;;6.32;1.10;;;-1.30;99.90;;;;;;4946393;28;20077;-68
2023/03/11 04:21:09;;;;;;;2.70;1.13;;;-1.20;99.90;;;;;;4947274;28;20060;-68
2023/03/11 04:23:35;;;;;;;5.25;1.67;;;-1.20;99.90;;;;;;4935744;28;20389;-68
2023/03/11 04:26:00;;;;;;;4.43;1.17;;;-1.30;99.90;;;;;;4947776;28;20515;-68
2023/03/11 04:28:26;;;;;;;6.43;0.95;;;-1.30;99.90;;;;;;4964453;28;20121;-68
2023/03/11 04:30:52;;;;;;;6.40;1.10;;;-1.30;99.90;;;;;;4939233;28;20047;-69
2023/03/11 04:33:18;;;;;;;7.32;1.60;;;-1.30;99.90;;;;;;4946999;28;20046;-68
2023/03/11 04:35:44;;;;;;;7.38;1.10;;;-1.30;99.90;;;;;;4934215;28;20050;-68
2023/03/11 04:38:10;;;;;;;3.20;1.00;;;-1.30;99.90;;;;;;4933532;28;20439;-69
2023/03/11 04:40:37;;;;;;;5.22;1.20;;;-1.30;99.90;;;;;;4919085;28;20591;-68
2023/03/11 04:43:03;;;;;;;6.55;1.10;;;-1.30;99.90;;;;;;4928298;28;20559;-68
2023/03/11 04:45:32;;;;;;;7.22;1.30;;;-1.30;99.90;;;;;;4943650;28;20144;-68
2023/03/11 04:47:57;;;;;;;3.58;1.00;;;-1.10;99.90;;;;;;4949160;28;20509;-68
2023/03/11 04:50:23;;;;;;;7.75;1.10;;;-1.40;99.90;;;;;;4948338;28;20145;-69
2023/03/11 04:52:49;;;;;;;4.35;0.88;;;-1.20;99.90;;;;;;4929705;28;26574;-69
2023/03/11 04:55:15;;;;;;;5.35;1.10;;;-1.40;99.90;;;;;;4965394;28;20492;-69
2023/03/11 04:57:42;;;;;;;4.97;1.15;;;-1.40;99.90;;;;;;4929980;28;20137;-68
2023/03/11 05:00:10;;;;;;;10.02;1.10;;;-1.40;99.90;;;;;;4946809;28;20073;-68
2023/03/11 05:02:38;;;;;;;5.28;0.98;;;-1.40;99.90;;;;;;4929596;28;20481;-68
2023/03/11 05:05:06;;;;;;;6.85;1.10;;;-1.30;99.90;;;;;;4942385;28;20055;-68
2023/03/11 05:07:32;;;;;;;7.05;1.27;;;-1.40;99.90;;;;;;4948673;28;20053;-68
2023/03/11 05:09:57;;;;;;;5.97;1.13;;;-1.50;99.90;;;;;;4931806;28;20057;-69
2023/03/11 05:12:23;;;;;;;3.40;1.23;;;-1.50;99.90;;;;;;4898989;28;20094;-68
2023/03/11 05:14:49;;;;;;;2.72;1.13;;;-1.50;99.90;;;;;;4935876;28;20073;-69
2023/03/11 05:17:17;;;;;;;3.67;1.13;;;-1.60;99.90;;;;;;4948407;28;20409;-68
2023/03/11 05:19:43;;;;;;;3.25;1.10;;;-1.70;99.90;;;;;;4900991;28;20046;-69
2023/03/11 05:22:09;;;;;;;7.72;1.00;;;-1.80;99.90;;;;;;4935026;28;20555;-68
2023/03/11 05:24:36;;;;;;;5.30;1.05;;;-1.80;99.90;;;;;;4953232;28;20120;-68
2023/03/11 05:27:01;;;;;;;4.40;1.00;;;-1.80;99.90;;;;;;4951147;28;20101;-69
2023/03/11 05:29:28;;;;;;;3.17;1.10;;;-1.90;99.90;;;;;;4949799;28;20503;-68
2023/03/11 05:31:53;;;;;;;3.70;1.30;;;-1.90;99.90;;;;;;4949705;28;20078;-69
2023/03/11 05:34:20;;;;;;;7.50;1.35;;;-2.00;99.90;;;;;;4949387;28;20140;-68
2023/03/11 05:36:45;;;;;;;8.95;1.10;;;-1.80;99.90;;;;;;4946975;28;20053;-68
2023/03/11 05:39:11;;;;;;;4.32;1.13;;;-2.10;99.90;;;;;;4930676;28;20080;-69
2023/03/11 05:41:37;;;;;;;3.03;1.30;;;-2.10;99.90;;;;;;4920148;28;20057;-68
2023/03/11 05:44:03;;;;;;;6.65;1.30;;;-2.20;99.90;;;;;;4965997;28;20149;-68
2023/03/11 05:46:29;;;;;;;4.80;1.10;;;-2.20;99.90;;;;;;4948947;28;20059;-68
2023/03/11 05:48:55;;;;;;;3.72;1.75;;;-2.30;99.90;;;;;;4950852;28;20684;-68
2023/03/11 05:51:21;;;;;;;5.05;1.13;;;-2.30;99.90;;;;;;4915890;28;20054;-68
2023/03/11 05:53:48;;;;;;;3.85;1.30;;;-2.30;99.90;;;;;;4931893;28;20042;-68
2023/03/11 05:56:15;;;;;;;4.63;1.55;;;-2.30;99.90;;;;;;4950779;28;20066;-68
2023/03/11 05:58:41;;;;;;;8.32;1.40;;;-2.30;99.90;;;;;;4944748;28;20057;-67
2023/03/11 06:01:12;;;;;;;4.18;1.02;;;-2.40;99.90;;;;;;4963136;28;20058;-67
2023/03/11 06:03:39;;;;;;;9.15;1.25;;;-2.40;99.90;;;;;;4950438;28;20062;-67
2023/03/11 06:06:10;;;;;;;6.00;1.13;;;-2.40;99.90;;;;;;4963820;28;20109;-67
2023/03/11 06:08:36;;;;;;;3.85;1.40;;;-2.40;99.90;;;;;;4934154;28;20089;-67
2023/03/11 06:11:06;;;;;;;4.07;1.38;;;-2.50;99.90;;;;;;4914005;28;20132;-67
2023/03/11 06:13:32;;;;;;;5.93;1.42;;;-2.50;99.90;;;;;;4952479;28;20114;-67
2023/03/11 06:15:58;;;;;;;2.55;1.40;;;-2.50;99.90;;;;;;4944764;28;20484;-67
2023/03/11 06:18:27;;;;;;;6.78;1.20;;;-2.50;99.90;;;;;;4947030;28;20038;-67
2023/03/11 06:20:56;;;;;;;3.88;1.50;;;-2.50;99.90;;;;;;4963627;28;20370;-67
2023/03/11 06:23:22;;;;;;;4.85;1.40;;;-2.50;99.90;;;;;;4961043;28;20042;-67
2023/03/11 06:26:03;;;;;;;3.88;1.20;;;-2.50;99.90;;;;;;4942615;28;20042;-67
2023/03/11 06:28:29;;;;;;;5.35;1.50;;;-2.40;99.90;;;;;;4964881;28;20515;-67
2023/03/11 06:30:55;;;;;;;2.75;1.23;;;-2.50;99.90;;;;;;4922332;28;20046;-67
2023/03/11 06:33:22;;;;;;;4.78;1.60;;;-2.50;99.90;;;;;;4928499;28;20043;-67
2023/03/11 06:35:59;;;;;;;6.25;1.25;;;-2.40;99.90;;;;;;4932493;28;20114;-66
2023/03/11 06:38:25;;;;;;;3.92;1.38;;;-2.50;99.90;;;;;;4961290;28;20093;-67
2023/03/11 06:40:52;;;;;;;9.15;1.40;;;-2.50;99.90;;;;;;4943122;28;20049;-67
2023/03/11 06:43:18;;;;;;;6.57;1.50;;;-2.50;99.90;;;;;;4956859;28;20078;-67
2023/03/11 06:45:44;;;;;;;9.82;1.48;;;-2.50;99.90;;;;;;4977268;28;20085;-67
2023/03/11 06:48:10;;;;;;;4.70;1.30;;;-2.50;99.90;;;;;;4965466;28;20516;-67
2023/03/11 06:50:36;;;;;;;3.55;1.35;;;-2.50;99.90;;;;;;4947881;28;20121;-67
2023/03/11 06:53:05;;;;;;;5.95;2.08;;;-2.50;99.90;;;;;;4946166;28;20104;-67
2023/03/11 06:55:31;;;;;;;7.45;1.42;;;-2.50;99.90;;;;;;4960088;28;20774;-67
2023/03/11 06:57:57;;;;;;;5.82;1.45;;;-2.50;99.90;;;;;;4931196;28;20050;-67
2023/03/11 07:00:23;;;;;;;5.63;1.42;;;-2.50;99.90;;;;;;4958796;28;20621;-67
2023/03/11 07:02:49;;;;;;;3.75;1.25;;;-2.40;99.90;;;;;;4931203;28;20057;-66
2023/03/11 07:05:15;;;;;;;3.50;1.40;;;-2.40;99.90;;;;;;4946749;28;20054;-67
2023/03/11 07:07:40;;;;;;;4.38;1.35;;;-2.40;99.90;;;;;;4963129;28;20386;-66
2023/03/11 07:10:07;;;;;;;5.63;1.50;;;-2.40;99.90;;;;;;4943728;28;20039;-66
2023/03/11 07:12:33;;;;;;;8.98;2.13;;;-2.30;99.90;;;;;;4935614;28;20079;-66
2023/03/11 07:14:59;;;;;;;6.72;1.75;;;-2.30;99.90;;;;;;4924086;28;20127;-66
2023/03/11 07:17:26;;;;;;;6.80;1.42;;;-2.30;99.90;;;;;;4940399;28;20754;-66
2023/03/11 07:19:53;;;;;;;7.70;1.73;;;-2.20;99.90;;;;;;4937442;28;20137;-66
2023/03/11 07:22:20;;;;;;;9.57;2.13;;;-2.20;99.90;;;;;;4941616;28;20133;-66
2023/03/11 07:24:47;;;;;;;5.38;1.67;;;-2.20;99.90;;;;;;4921867;28;20051;-66
2023/03/11 07:27:13;;;;;;;6.25;1.30;;;-1.80;99.90;;;;;;4955264;28;20051;-67
2023/03/11 07:29:38;;;;;;;8.98;1.80;;;-2.10;99.90;;;;;;4953213;28;20670;-67
2023/03/11 07:32:06;;;;;;;9.73;1.80;;;-2.10;99.90;;;;;;4921766;28;20046;-67
2023/03/11 07:34:32;;;;;;;5.95;1.67;;;-2.00;99.90;;;;;;4938947;28;20081;-66
2023/03/11 07:36:58;;;;;;;7.43;1.63;;;-2.00;99.90;;;;;;4937483;28;20613;-66
2023/03/11 07:39:24;;;;;;;3.75;1.60;;;-2.00;99.90;;;;;;4937692;28;20038;-67
2023/03/11 07:41:50;;;;;;;6.30;1.50;;;-1.90;99.90;;;;;;4956189;28;20141;-67
2023/03/11 07:44:17;;;;;;;5.07;1.50;;;-1.80;99.90;;;;;;4952953;28;20406;-67
2023/03/11 07:46:43;;;;;;;3.58;1.58;;;-1.80;99.90;;;;;;4936910;28;20053;-67
2023/03/11 07:49:09;;;;;;;5.47;1.63;;;-1.80;99.90;;;;;;4925509;28;20486;-67
2023/03/11 07:51:37;;;;;;;6.32;1.55;;;-1.70;99.90;;;;;;4924940;28;20043;-67
2023/03/11 07:54:03;;;;;;;6.22;1.92;;;-1.70;99.90;;;;;;4938963;28;20047;-67
2023/03/11 07:56:31;;;;;;;4.80;1.73;;;-1.60;99.90;;;;;;4920512;28;20043;-67
2023/03/11 07:59:01;;;;;;;10.35;1.90;;;-1.60;99.90;;;;;;4931761;28;20043;-67
2023/03/11 08:01:34;;;;;;;9.30;1.80;;;-1.50;99.90;;;;;;4894276;28;20449;-67
2023/03/11 08:04:03;;;;;;;7.55;2.28;;;-1.40;99.90;;;;;;4931850;28;20058;-67
2023/03/11 08:06:31;;;;;;;8.35;1.60;;;-1.40;99.90;;;;;;4934548;28;20043;-67
2023/03/11 08:09:02;;;;;;;9.23;1.80;;;-1.30;99.90;;;;;;4933468;28;20042;-67
2023/03/11 08:11:29;;;;;;;6.68;1.95;;;-1.20;99.90;;;;;;4950168;28;20101;-68
2023/03/11 08:13:56;;;;;;;5.70;1.95;;;-1.10;99.90;;;;;;4953977;28;20493;-68
2023/03/11 08:16:23;;;;;;;7.18;1.58;;;-1.00;99.90;;;;;;4940870;28;20049;-68
2023/03/11 08:18:51;;;;;;;4.38;1.73;;;-0.90;99.90;;;;;;4959498;28;20347;-68
2023/03/11 08:21:25;;;;;;;5.63;1.65;;;-0.80;99.90;;;;;;4955018;28;20045;-68
2023/03/11 08:23:55;;;;;;;8.85;1.80;;;-0.60;99.90;;;;;;4935831;28;20189;-69
2023/03/11 08:26:21;;;;;;;7.53;1.67;;;-0.40;99.90;;;;;;4955427;28;20121;-68
2023/03/11 08:28:48;;;;;;;3.17;1.40;;;-0.30;99.90;;;;;;4945157;28;20048;-68
2023/03/11 08:31:19;;;;;;;10.35;2.03;;;-0.10;99.90;;;;;;4954658;28;20042;-68
2023/03/11 08:33:48;;;;;;;6.53;2.05;;;0.20;99.90;;;;;;4962338;28;20751;-68
2023/03/11 08:36:14;;;;;;;5.72;2.20;;;0.40;99.90;;;;;;4963923;28;20108;-68
2023/03/11 08:38:40;;;;;;;6.40;3.65;;;0.60;99.90;;;;;;4913806;28;20054;-68
2023/03/11 08:41:06;;;;;;;10.63;4.05;;;0.80;99.90;;;;;;4978044;28;20053;-68
2023/03/11 08:43:32;;;;;;;9.98;4.60;;;1.00;99.90;;;;;;4960283;28;20515;-68
2023/03/11 08:46:05;;;;;;;12.68;5.38;;;1.10;99.90;;;;;;4961835;28;20046;-68
2023/03/11 08:48:31;;;;;;;7.68;3.08;;;1.30;99.90;;;;;;4947942;28;20137;-68
2023/03/11 08:50:57;;;;;;;5.57;2.67;;;1.50;99.90;;;;;;4960369;28;20080;-67
2023/03/11 08:53:23;;;;;;;3.47;1.85;;;1.70;99.90;;;;;;4930921;28;20474;-67
2023/03/11 08:55:50;;;;;;;6.60;2.22;;;1.80;99.90;;;;;;4942989;28;21013;-67
2023/03/11 08:58:16;;;;;;;5.38;1.85;;;2.00;99.90;;;;;;4931752;28;20489;-67
2023/03/11 09:00:42;;;;;;;6.32;2.13;;;2.20;99.90;;;;;;4961348;28;20046;-67
2023/03/11 09:03:08;;;;;;;6.55;2.38;;;2.30;99.90;;;;;;4948907;28;20054;-66
2023/03/11 09:05:35;;;;;;;5.22;1.70;;;2.50;99.90;;;;;;4911647;28;20059;-66
2023/03/11 09:08:02;;;;;;;5.85;2.25;;;2.60;99.90;;;;;;4938170;28;20076;-63
2023/03/11 09:10:28;;;;;;;6.63;1.92;;;2.70;99.90;;;;;;4929803;28;20050;-65
2023/03/11 09:12:54;;;;;;;4.13;1.88;;;2.90;99.90;;;;;;4952131;28;20138;-64
2023/03/11 09:15:20;;;;;;;10.25;2.45;;;3.10;99.90;;;;;;4955499;28;20050;-64
2023/03/11 09:17:46;;;;;;;7.05;1.90;;;3.20;99.90;;;;;;4959200;28;20054;-64
2023/03/11 09:20:13;;;;;;;7.75;2.00;;;3.30;99.90;;;;;;4970651;28;20046;-64
2023/03/11 09:22:39;;;;;;;3.80;1.70;;;3.50;99.90;;;;;;4949591;28;20472;-67
2023/03/11 09:25:05;;;;;;;5.35;1.80;;;3.60;99.90;;;;;;4949001;28;20054;-65
2023/03/11 09:27:31;;;;;;;6.82;1.75;;;3.70;99.90;;;;;;4950917;28;20054;-65
2023/03/11 09:29:57;;;;;;;3.40;2.13;;;3.80;99.90;;;;;;4953256;28;20050;-65
2023/03/11 09:32:23;;;;;;;3.90;1.70;;;3.90;99.90;;;;;;4940183;28;20056;-65
2023/03/11 09:34:49;;;;;;;6.25;1.42;;;4.00;99.90;;;;;;4940190;28;20137;-65
2023/03/11 09:37:14;;;;;;;10.02;2.45;;;4.10;99.90;;;;;;4938595;28;20073;-65
2023/03/11 09:39:40;;;;;;;18.50;3.17;;;4.20;99.90;;;;;;4959329;28;20054;-64
2023/03/11 09:42:24;;;;;;;5.60;1.95;;;4.30;99.90;;;;;;4921833;28;20498;-65
2023/03/11 09:44:59;;;;;;;7.53;1.98;;;4.40;99.90;;;;;;4976894;28;20061;-64
2023/03/11 09:47:37;;;;;;;8.15;2.45;;;4.60;99.90;;;;;;4976798;28;20054;-64
2023/03/11 09:50:25;;;;;;;5.05;1.70;;;4.70;99.90;;;;;;4968002;28;20050;-64
2023/03/11 09:53:17;;;;;;;4.75;1.85;;;4.80;99.90;;;;;;4953752;28;20042;-64
2023/03/11 09:55:55;;;;;;;5.53;2.30;;;4.90;99.90;;;;;;4927269;28;20057;-65
2023/03/11 09:58:44;;;;;;;9.00;1.73;;;5.00;99.90;;;;;;4950056;28;20957;-64
2023/03/11 10:01:22;;;;;;;9.00;1.92;;;5.10;99.90;;;;;;4947828;28;20046;-64
2023/03/11 10:03:51;;;;;;;4.68;1.83;;;5.30;99.90;;;;;;4922995;28;20142;-64
2023/03/11 10:06:23;;;;;;;8.70;2.20;;;5.40;99.90;;;;;;4927300;28;20081;-64
2023/03/11 10:09:06;;;;;;;14.18;2.10;;;5.60;99.90;;;;;;4946419;28;20061;-64
2023/03/11 10:11:39;;;;;;;;;;;5.80;99.90;;;;;;4956752;28;20081;-64
2023/03/11 10:14:10;;;;;;;8.07;2.13;;;6.00;99.90;;;;;;4955871;28;19925;-64
2023/03/11 10:16:39;;;;;;;4.22;1.58;;;6.10;99.90;;;;;;4941970;28;20046;-65
2023/03/11 10:19:25;;;;;;;11.38;2.25;;;6.10;99.90;;;;;;4957379;28;20058;-64
2023/03/11 10:22:21;;;;;;;7.13;1.92;;;6.20;99.90;;;;;;4969654;28;20046;-66
2023/03/11 10:25:04;;;;;;;9.75;2.08;;;6.30;99.90;;;;;;4978163;28;20050;-65
2023/03/11 10:27:42;;;;;;;7.78;1.90;;;6.40;99.90;;;;;;4982877;28;20148;-65
2023/03/11 10:30:25;;;;;;;5.05;1.50;;;6.40;99.90;;;;;;4973952;28;21050;-65
2023/03/11 10:33:27;;;;;;;5.47;1.75;;;6.40;99.90;;;;;;4971209;28;21163;-66
2023/03/11 10:35:57;;;;;;;3.90;1.75;;;6.40;99.90;;;;;;4937978;28;20555;-66
2023/03/11 10:38:36;;;;;;;5.43;1.85;;;6.50;99.90;;;;;;4945283;28;20125;-66
2023/03/11 10:41:30;;;;;;;6.75;2.03;;;6.60;99.90;;;;;;4955390;28;20046;-66
2023/03/11 10:44:01;;;;;;;6.10;2.00;;;6.70;99.90;;;;;;4967313;28;20058;-65
2023/03/11 10:46:28;;;;;;;7.20;2.40;;;6.80;99.90;;;;;;4951705;28;20050;-66
2023/03/11 10:48:54;;;;;;;7.45;2.38;;;6.90;99.90;;;;;;4964091;28;20564;-67
2023/03/11 10:51:29;;;;;;;6.63;2.00;;;7.10;99.90;;;;;;4966295;28;20046;-67
2023/03/11 10:53:57;;;;;;;2.67;1.58;;;7.20;99.90;;;;;;4963933;28;20121;-69
2023/03/11 10:56:33;;;;;;;6.05;1.92;;;7.40;99.90;;;;;;4968949;28;20069;-67
2023/03/11 10:59:00;;;;;;;5.07;1.73;;;7.50;99.90;;;;;;4960851;28;20146;-66
2023/03/11 11:01:27;;;;;;;6.40;1.73;;;7.60;99.90;;;;;;4979549;28;20046;-67
2023/03/11 11:03:56;;;;;;;7.85;1.98;;;7.60;99.90;;;;;;4963111;28;20042;-66
2023/03/11 11:06:34;;;;;;;4.72;1.63;;;7.60;99.90;;;;;;4980401;28;20393;-67
2023/03/11 11:09:05;;;;;;;2.70;1.40;;;7.60;99.90;;;;;;4964226;28;20057;-66
2023/03/11 11:11:32;;;;;;;9.90;1.50;;;7.70;99.90;;;;;;4973023;28;20054;-65
2023/03/11 11:13:59;;;;;;;9.02;1.42;;;7.70;99.90;;;;;;4955773;28;20046;-66
2023/03/11 11:16:26;;;;;;;5.03;1.33;;;7.80;99.90;;;;;;4963699;28;20047;-65
2023/03/11 11:19:14;;;;;;;5.15;1.30;;;8.00;99.90;;;;;;4960588;28;20057;-65
2023/03/11 11:21:47;;;;;;;6.05;1.52;;;8.10;99.90;;;;;;4951641;28;20536;-65
2023/03/11 11:24:20;;;;;;;7.30;1.90;;;8.30;99.90;;;;;;4951083;28;20089;-65
2023/03/11 11:27:15;;;;;;;6.45;1.45;;;8.40;99.90;;;;;;4958864;28;20537;-66
2023/03/11 11:29:41;;;;;;;3.70;1.70;;;8.50;99.90;;;;;;4955376;28;20620;-66
2023/03/11 11:32:19;;;;;;;5.35;1.55;;;8.70;99.90;;;;;;4958049;28;20038;-67
2023/03/11 11:34:57;;;;;;;4.47;1.50;;;8.80;99.90;;;;;;4926243;28;20180;-66
2023/03/11 11:37:27;;;;;;;4.70;1.33;;;8.90;99.90;;;;;;4962425;28;20050;-65
2023/03/11 11:39:58;;;;;;;5.55;1.42;;;8.90;99.90;;;;;;4947094;28;20531;-66
2023/03/11 11:42:27;;;;;;;5.50;1.33;;;8.90;99.90;;;;;;4947383;28;20049;-67
2023/03/11 11:44:59;;;;;;;4.85;1.63;;;9.00;99.90;;;;;;4949640;28;20050;-67
2023/03/11 11:47:33;;;;;;;4.13;1.55;;;9.10;99.90;;;;;;4961155;28;20113;-67
2023/03/11 11:50:06;;;;;;;4.63;1.67;;;9.10;99.90;;;;;;4955852;28;20150;-67
2023/03/11 11:52:48;;;;;;;5.50;1.45;;;9.10;99.90;;;;;;4961535;28;20046;-65
2023/03/11 11:55:25;;;;;;;5.95;1.40;;;9.20;99.90;;;;;;4973511;28;20062;-67
2023/03/11 11:57:51;;;;;;;2.50;1.38;;;9.20;99.90;;;;;;4958156;28;27518;-65
2023/03/11 12:00:24;;;;;;;6.05;1.52;;;9.30;99.90;;;;;;4956756;28;20519;-67
2023/03/11 12:02:49;;;;;;;;;;;9.40;99.90;;;;;;4958836;28;20054;-67
2023/03/11 12:05:27;;;;;;;5.32;1.40;;;9.50;99.90;;;;;;4962480;28;19926;-67
2023/03/11 12:08:01;;;;;;;3.85;1.35;;;9.60;99.90;;;;;;4963360;28;20104;-68
2023/03/11 12:10:44;;;;;;;5.78;1.40;;;9.70;99.90;;;;;;4970919;28;20141;-68
2023/03/11 12:13:40;;;;;;;2.65;1.02;;;9.70;99.90;;;;;;4956215;28;20058;-66
2023/03/11 12:16:29;;;;;;;7.55;1.50;;;9.80;99.90;;;;;;4928761;28;20109;-66
2023/03/11 12:19:10;;;;;;;5.15;1.38;;;9.80;99.90;;;;;;4963973;28;20050;-67
2023/03/11 12:21:54;;;;;;;3.40;1.00;;;9.90;99.90;;;;;;4946813;28;20126;-67
2023/03/11 12:25:14;;;;;;;3.97;1.10;;;9.90;99.90;;;;;;4942619;28;20061;-68
2023/03/11 12:27:50;;;;;;;4.07;1.15;;;10.00;99.90;;;;;;4923256;28;20057;-66
2023/03/11 12:30:22;;;;;;;4.60;1.13;;;10.00;99.90;;;;;;4930049;28;20137;-65
2023/03/11 12:32:56;;;;;;;7.15;1.45;;;10.00;99.90;;;;;;4935046;28;20145;-64
2023/03/11 12:35:34;;;;;;;6.95;1.20;;;9.90;99.90;;;;;;4942877;28;20078;-67
2023/03/11 12:38:12;;;;;;;3.90;1.10;;;9.90;99.80;;;;;;4955624;28;20191;-66
2023/03/11 12:40:53;;;;;;;7.05;1.00;;;9.80;99.90;;;;;;4954037;28;20850;-66
2023/03/11 12:43:34;;;;;;;2.28;0.80;;;9.70;99.90;;;;;;4934004;28;20058;-65
2023/03/11 12:46:01;;;;;;;3.58;1.23;;;9.60;99.90;;;;;;4943437;28;20046;-67
2023/03/11 12:48:32;;;;;;;3.30;0.82;;;9.50;99.90;;;;;;4935514;28;20057;-65
2023/03/11 12:50:59;;;;;;;3.13;0.85;;;9.40;99.90;;;;;;4970703;28;20069;-66
2023/03/11 12:53:51;;;;;;;6.25;1.20;;;9.40;99.90;;;;;;4964299;28;20042;-67
2023/03/11 12:56:43;;;;;;;3.45;1.23;;;9.50;99.90;;;;;;4950208;28;20113;-67
2023/03/11 12:59:38;;;;;;;5.93;1.17;;;9.60;99.70;;;;;;4973974;28;20140;-68
2023/03/11 13:02:06;;;;;;;2.92;1.00;;;9.80;99.40;;;;;;4946730;28;20053;-68
2023/03/11 13:04:50;;;;;;;5.13;1.30;;;10.00;99.90;;;;;;4954132;28;20061;-68
2023/03/11 13:07:21;;;;;;;7.65;1.30;;;10.20;99.90;;;;;;4956312;28;21181;-65